createdAt,value
2023-06-17T00:00:15.799Z,18.28
2023-06-17T00:01:12.781Z,18.01
2023-06-17T00:02:09.653Z,17.95
2023-06-17T00:03:06.706Z,18.29
2023-06-17T00:04:04.290Z,17.68
2023-06-17T00:05:01.400Z,18.07
2023-06-17T00:05:58.197Z,18.14
2023-06-17T00:06:55.072Z,18.18
2023-06-17T00:07:52.784Z,18.34
2023-06-17T00:08:50.244Z,18.33
2023-06-17T00:09:47.055Z,18.51
2023-06-17T00:10:45.065Z,18.32
2023-06-17T00:11:41.952Z,18.34
2023-06-17T00:12:39.458Z,18.29
2023-06-17T00:13:36.238Z,18.47
2023-06-17T00:14:33.790Z,18.25
2023-06-17T00:15:33.909Z,18.33
2023-06-17T00:16:33.964Z,18.04
2023-06-17T00:17:32.150Z,18.11
2023-06-17T00:18:29.826Z,18.16
2023-06-17T00:19:26.803Z,17.97
2023-06-17T00:20:24.713Z,18.04
2023-06-17T00:21:21.768Z,18.25
2023-06-17T00:22:19.946Z,18.03
2023-06-17T00:23:16.884Z,18.00
2023-06-17T00:24:13.803Z,18.25
2023-06-17T00:25:12.789Z,18.29
2023-06-17T00:26:09.680Z,18.19
2023-06-17T00:27:06.796Z,18.05
2023-06-17T00:28:03.801Z,18.15
2023-06-17T00:29:00.659Z,18.19
2023-06-17T00:30:00.792Z,18.05
2023-06-17T00:30:57.730Z,18.17
2023-06-17T00:31:54.443Z,17.82
2023-06-17T00:32:51.248Z,18.21
2023-06-17T00:33:48.081Z,18.16
2023-06-17T00:34:44.910Z,18.02
2023-06-17T00:35:42.367Z,18.05
2023-06-17T00:36:39.148Z,18.19
2023-06-17T00:37:35.943Z,18.11
2023-06-17T00:38:33.886Z,17.66
2023-06-17T00:39:30.769Z,18.33
2023-06-17T00:40:27.607Z,18.12
2023-06-17T00:41:24.398Z,18.31
2023-06-17T00:42:21.268Z,18.40
2023-06-17T00:43:18.169Z,18.03
2023-06-17T00:44:15.009Z,18.18
2023-06-17T00:45:12.117Z,17.82
2023-06-17T00:46:12.990Z,18.09
2023-06-17T00:47:12.600Z,17.41
2023-06-17T00:48:11.439Z,18.04
2023-06-17T00:49:12.521Z,18.12
2023-06-17T00:50:16.378Z,18.08
2023-06-17T00:51:13.250Z,18.07
2023-06-17T00:52:27.374Z,18.10
2023-06-17T00:53:32.485Z,17.76
2023-06-17T00:54:29.838Z,18.31
2023-06-17T00:55:28.130Z,18.28
2023-06-17T00:56:26.430Z,18.21
2023-06-17T00:57:24.461Z,18.07
2023-06-17T00:58:21.381Z,18.19
2023-06-17T00:59:18.163Z,18.11
2023-06-17T01:00:16.305Z,18.16
2023-06-17T01:01:14.956Z,17.78
2023-06-17T01:02:14.741Z,17.52
2023-06-17T01:03:11.767Z,18.02
2023-06-17T01:04:08.828Z,17.97
2023-06-17T01:05:06.101Z,18.11
2023-06-17T01:06:13.281Z,18.33
2023-06-17T01:07:36.744Z,18.12
2023-06-17T01:08:41.961Z,17.94
2023-06-17T01:09:44.348Z,18.12
2023-06-17T01:10:59.438Z,18.28
2023-06-17T01:11:58.623Z,18.22
2023-06-17T01:12:58.902Z,18.22
2023-06-17T01:13:57.929Z,18.27
2023-06-17T01:14:58.280Z,18.20
2023-06-17T01:15:57.658Z,18.25
2023-06-17T01:16:55.788Z,18.17
2023-06-17T01:17:56.305Z,17.92
2023-06-17T01:18:54.658Z,18.13
2023-06-17T01:19:52.855Z,18.15
2023-06-17T01:20:55.486Z,17.98
2023-06-17T01:21:54.640Z,18.07
2023-06-17T01:22:55.737Z,18.19
2023-06-17T01:23:54.642Z,18.04
2023-06-17T01:24:52.734Z,18.07
2023-06-17T01:25:50.833Z,17.90
2023-06-17T01:26:55.581Z,17.97
2023-06-17T01:27:55.535Z,17.77
2023-06-17T01:28:54.494Z,17.90
2023-06-17T01:29:51.748Z,17.99
2023-06-17T01:30:49.354Z,17.82
2023-06-17T01:31:49.967Z,18.06
2023-06-17T01:32:46.879Z,18.06
2023-06-17T01:33:48.179Z,17.78
2023-06-17T01:34:59.841Z,17.84
2023-06-17T01:36:11.490Z,18.05
2023-06-17T01:37:13.016Z,18.00
2023-06-17T01:38:22.093Z,18.10
2023-06-17T01:39:27.000Z,17.89
2023-06-17T01:40:25.919Z,17.69
2023-06-17T01:41:34.872Z,18.02
2023-06-17T01:42:35.820Z,18.12
2023-06-17T01:43:36.655Z,17.87
2023-06-17T01:44:36.133Z,17.95
2023-06-17T01:45:34.279Z,17.97
2023-06-17T01:46:32.303Z,17.89
2023-06-17T01:47:29.351Z,17.96
2023-06-17T01:48:26.290Z,17.66
2023-06-17T01:49:23.126Z,17.85
2023-06-17T01:50:21.032Z,17.52
2023-06-17T01:51:18.107Z,18.00
2023-06-17T01:52:14.849Z,17.87
2023-06-17T01:53:12.094Z,17.99
2023-06-17T01:54:09.006Z,17.98
2023-06-17T01:55:06.284Z,18.06
2023-06-17T01:56:03.876Z,18.18
2023-06-17T01:57:01.937Z,17.73
2023-06-17T01:57:58.848Z,17.77
2023-06-17T01:58:55.735Z,18.14
2023-06-17T01:59:56.825Z,17.99
2023-06-17T02:00:54.118Z,18.20
2023-06-17T02:01:51.153Z,17.75
2023-06-17T02:02:47.990Z,17.56
2023-06-17T02:03:45.581Z,18.19
2023-06-17T02:04:42.767Z,18.11
2023-06-17T02:05:39.644Z,17.93
2023-06-17T02:06:36.532Z,18.12
2023-06-17T02:07:33.414Z,18.24
2023-06-17T02:08:30.172Z,17.84
2023-06-17T02:09:27.130Z,17.91
2023-06-17T02:10:24.043Z,18.13
2023-06-17T02:11:21.183Z,18.11
2023-06-17T02:12:18.041Z,17.46
2023-06-17T02:13:14.772Z,17.93
2023-06-17T02:14:11.577Z,18.10
2023-06-17T02:15:09.099Z,17.53
2023-06-17T02:16:06.051Z,17.63
2023-06-17T02:17:04.362Z,17.76
2023-06-17T02:18:01.770Z,17.64
2023-06-17T02:18:58.561Z,17.47
2023-06-17T02:19:56.014Z,17.52
2023-06-17T02:20:53.647Z,18.01
2023-06-17T02:21:50.468Z,17.84
2023-06-17T02:22:47.328Z,18.00
2023-06-17T02:23:47.024Z,18.03
2023-06-17T02:24:43.937Z,17.83
2023-06-17T02:25:41.092Z,17.78
2023-06-17T02:26:38.071Z,17.66
2023-06-17T02:27:35.132Z,17.73
2023-06-17T02:28:32.454Z,17.84
2023-06-17T02:29:29.222Z,17.61
2023-06-17T02:30:26.157Z,17.87
2023-06-17T02:31:23.287Z,17.84
2023-06-17T02:32:20.129Z,17.77
2023-06-17T02:33:19.358Z,18.02
2023-06-17T02:34:16.768Z,17.88
2023-06-17T02:35:13.520Z,17.97
2023-06-17T02:36:10.819Z,17.66
2023-06-17T02:37:08.703Z,17.98
2023-06-17T02:38:05.620Z,17.76
2023-06-17T02:39:02.503Z,17.79
2023-06-17T02:39:59.281Z,17.93
2023-06-17T02:40:56.208Z,17.93
2023-06-17T02:41:53.179Z,17.68
2023-06-17T02:42:49.969Z,17.58
2023-06-17T02:43:46.779Z,17.56
2023-06-17T02:44:43.695Z,17.84
2023-06-17T02:45:40.572Z,17.78
2023-06-17T02:46:37.511Z,17.70
2023-06-17T02:47:34.762Z,17.96
2023-06-17T02:48:31.569Z,17.68
2023-06-17T02:49:28.545Z,17.81
2023-06-17T02:50:27.114Z,17.85
2023-06-17T02:51:25.066Z,17.51
2023-06-17T02:52:22.318Z,17.60
2023-06-17T02:53:19.056Z,17.77
2023-06-17T02:54:15.892Z,17.95
2023-06-17T02:55:12.704Z,17.70
2023-06-17T02:56:09.652Z,17.32
2023-06-17T02:57:06.816Z,17.34
2023-06-17T02:58:04.344Z,17.67
2023-06-17T02:59:01.739Z,17.75
2023-06-17T02:59:59.150Z,17.45
2023-06-17T03:00:56.022Z,18.03
2023-06-17T03:01:52.832Z,17.92
2023-06-17T03:02:50.640Z,17.74
2023-06-17T03:03:47.468Z,17.93
2023-06-17T03:04:44.341Z,17.85
2023-06-17T03:05:42.581Z,17.93
2023-06-17T03:06:42.254Z,17.85
2023-06-17T03:07:41.474Z,17.88
2023-06-17T03:08:40.697Z,17.53
2023-06-17T03:09:37.472Z,17.71
2023-06-17T03:10:35.328Z,17.46
2023-06-17T03:11:32.135Z,17.32
2023-06-17T03:12:28.981Z,17.44
2023-06-17T03:13:25.862Z,17.82
2023-06-17T03:14:22.675Z,17.81
2023-06-17T03:15:19.497Z,17.74
2023-06-17T03:16:18.220Z,17.88
2023-06-17T03:17:15.195Z,17.95
2023-06-17T03:18:12.183Z,18.16
2023-06-17T03:19:09.009Z,18.09
2023-06-17T03:20:09.899Z,18.23
2023-06-17T03:21:06.749Z,17.86
2023-06-17T03:22:03.619Z,17.95
2023-06-17T03:23:03.602Z,17.99
2023-06-17T03:24:02.026Z,17.96
2023-06-17T03:24:58.794Z,17.80
2023-06-17T03:25:56.194Z,18.18
2023-06-17T03:26:54.621Z,17.93
2023-06-17T03:27:51.917Z,18.24
2023-06-17T03:28:48.643Z,18.14
2023-06-17T03:29:45.483Z,17.85
2023-06-17T03:30:42.503Z,17.93
2023-06-17T03:31:39.335Z,17.77
2023-06-17T03:32:36.738Z,17.81
2023-06-17T03:33:33.689Z,17.56
2023-06-17T03:34:32.457Z,17.86
2023-06-17T03:35:29.224Z,17.81
2023-06-17T03:36:26.309Z,17.92
2023-06-17T03:37:23.285Z,17.80
2023-06-17T03:38:21.039Z,18.02
2023-06-17T03:39:17.913Z,17.92
2023-06-17T03:40:14.924Z,17.83
2023-06-17T03:41:12.560Z,17.93
2023-06-17T03:42:09.451Z,17.88
2023-06-17T03:43:06.220Z,17.90
2023-06-17T03:44:03.008Z,17.99
2023-06-17T03:44:59.849Z,18.02
2023-06-17T03:45:56.575Z,18.05
2023-06-17T03:46:53.436Z,18.05
2023-06-17T03:47:50.565Z,18.04
2023-06-17T03:48:47.897Z,17.88
2023-06-17T03:49:45.469Z,18.06
2023-06-17T03:50:42.237Z,17.82
2023-06-17T03:51:39.363Z,17.84
2023-06-17T03:52:36.177Z,17.95
2023-06-17T03:53:33.062Z,18.06
2023-06-17T03:54:29.891Z,17.88
2023-06-17T03:55:26.769Z,17.94
2023-06-17T03:56:23.683Z,17.92
2023-06-17T03:57:20.490Z,18.03
2023-06-17T03:58:18.885Z,17.99
2023-06-17T03:59:16.310Z,18.17
2023-06-17T04:00:15.048Z,17.95
2023-06-17T04:01:15.988Z,17.62
2023-06-17T04:02:12.991Z,17.90
2023-06-17T04:03:10.129Z,17.90
2023-06-17T04:04:07.053Z,17.75
2023-06-17T04:05:06.185Z,17.77
2023-06-17T04:06:03.150Z,17.72
2023-06-17T04:06:59.924Z,17.71
2023-06-17T04:08:00.705Z,17.71
2023-06-17T04:08:57.456Z,17.89
2023-06-17T04:10:06.302Z,17.72
2023-06-17T04:11:04.271Z,18.24
2023-06-17T04:12:01.318Z,17.92
2023-06-17T04:12:58.130Z,17.83
2023-06-17T04:13:54.994Z,18.22
2023-06-17T04:14:51.754Z,18.29
2023-06-17T04:15:48.566Z,18.23
2023-06-17T04:16:45.577Z,18.29
2023-06-17T04:17:42.384Z,18.08
2023-06-17T04:18:41.108Z,18.39
2023-06-17T04:19:38.873Z,17.98
2023-06-17T04:20:36.177Z,18.08
2023-06-17T04:21:32.994Z,18.16
2023-06-17T04:22:29.767Z,18.00
2023-06-17T04:23:26.508Z,18.08
2023-06-17T04:24:23.369Z,17.75
2023-06-17T04:25:22.225Z,18.19
2023-06-17T04:26:20.188Z,17.72
2023-06-17T04:27:17.014Z,17.69
2023-06-17T04:28:14.261Z,18.04
2023-06-17T04:29:11.423Z,17.98
2023-06-17T04:30:09.972Z,18.19
2023-06-17T04:31:06.905Z,18.13
2023-06-17T04:32:03.947Z,18.05
2023-06-17T04:33:01.733Z,17.78
2023-06-17T04:34:01.562Z,18.22
2023-06-17T04:34:58.417Z,17.84
2023-06-17T04:35:57.043Z,18.11
2023-06-17T04:36:58.514Z,18.18
2023-06-17T04:37:55.582Z,17.84
2023-06-17T04:38:52.373Z,18.19
2023-06-17T04:39:49.838Z,18.14
2023-06-17T04:40:46.652Z,17.94
2023-06-17T04:41:47.080Z,18.35
2023-06-17T04:42:45.939Z,18.14
2023-06-17T04:43:50.089Z,18.16
2023-06-17T04:44:50.092Z,18.23
2023-06-17T04:45:47.240Z,18.25
2023-06-17T04:46:45.114Z,18.18
2023-06-17T04:47:42.642Z,17.99
2023-06-17T04:48:40.665Z,18.02
2023-06-17T04:49:42.541Z,18.23
2023-06-17T04:50:39.372Z,18.32
2023-06-17T04:51:39.513Z,18.15
2023-06-17T04:52:36.284Z,18.25
2023-06-17T04:53:33.117Z,18.28
2023-06-17T04:54:30.735Z,18.36
2023-06-17T04:55:27.568Z,18.03
2023-06-17T04:56:27.978Z,17.98
2023-06-17T04:57:24.932Z,18.17
2023-06-17T04:58:21.759Z,18.14
2023-06-17T04:59:20.758Z,18.08
2023-06-17T05:00:20.019Z,18.05
2023-06-17T05:01:18.511Z,18.06
2023-06-17T05:02:15.465Z,18.26
2023-06-17T05:03:12.476Z,18.03
2023-06-17T05:04:09.383Z,18.21
2023-06-17T05:05:07.162Z,18.22
2023-06-17T05:06:04.049Z,18.16
2023-06-17T05:07:00.866Z,18.00
2023-06-17T05:07:57.675Z,18.07
2023-06-17T05:08:54.560Z,17.97
2023-06-17T05:09:51.391Z,17.95
2023-06-17T05:10:48.256Z,17.65
2023-06-17T05:11:45.137Z,17.98
2023-06-17T05:12:43.062Z,18.18
2023-06-17T05:13:40.822Z,18.07
2023-06-17T05:14:37.601Z,17.87
2023-06-17T05:15:34.394Z,17.40
2023-06-17T05:16:32.338Z,17.84
2023-06-17T05:17:29.201Z,17.92
2023-06-17T05:18:26.104Z,17.79
2023-06-17T05:19:22.832Z,17.82
2023-06-17T05:20:20.010Z,17.81
2023-06-17T05:21:21.919Z,17.75
2023-06-17T05:22:18.753Z,17.94
2023-06-17T05:23:15.661Z,17.91
2023-06-17T05:24:12.518Z,17.80
2023-06-17T05:25:09.426Z,17.81
2023-06-17T05:26:06.197Z,17.87
2023-06-17T05:27:03.160Z,17.98
2023-06-17T05:28:01.575Z,17.97
2023-06-17T05:28:58.382Z,17.99
2023-06-17T05:29:55.171Z,18.00
2023-06-17T05:30:52.021Z,17.89
2023-06-17T05:31:48.891Z,18.02
2023-06-17T05:32:45.667Z,17.89
2023-06-17T05:33:42.666Z,18.01
2023-06-17T05:34:39.463Z,17.92
2023-06-17T05:35:36.432Z,17.62
2023-06-17T05:36:33.233Z,17.75
2023-06-17T05:37:30.067Z,17.24
2023-06-17T05:38:30.225Z,17.61
2023-06-17T05:39:27.016Z,17.74
2023-06-17T05:40:23.890Z,17.82
2023-06-17T05:41:21.031Z,17.73
2023-06-17T05:42:17.864Z,17.84
2023-06-17T05:43:14.639Z,17.98
2023-06-17T05:44:11.505Z,18.16
2023-06-17T05:45:08.741Z,17.43
2023-06-17T05:46:05.830Z,18.12
2023-06-17T05:47:02.788Z,17.70
2023-06-17T05:47:59.689Z,17.87
2023-06-17T05:48:56.633Z,17.94
2023-06-17T05:49:53.699Z,17.94
2023-06-17T05:50:50.493Z,17.84
2023-06-17T05:51:47.207Z,17.83
2023-06-17T05:52:45.621Z,17.65
2023-06-17T05:53:45.066Z,17.63
2023-06-17T05:54:43.460Z,17.39
2023-06-17T05:55:40.382Z,17.46
2023-06-17T05:56:37.241Z,17.82
2023-06-17T05:57:34.065Z,17.69
2023-06-17T05:58:30.885Z,17.45
2023-06-17T05:59:30.001Z,17.65
2023-06-17T06:00:26.945Z,17.55
2023-06-17T06:01:24.011Z,17.55
2023-06-17T06:02:21.101Z,17.67
2023-06-17T06:03:17.901Z,17.22
2023-06-17T06:04:14.860Z,17.55
2023-06-17T06:05:11.755Z,17.60
2023-06-17T06:06:08.637Z,17.59
2023-06-17T06:07:05.522Z,17.66
2023-06-17T06:08:02.344Z,17.52
2023-06-17T06:08:59.081Z,17.63
2023-06-17T06:09:55.883Z,17.86
2023-06-17T06:10:52.751Z,17.86
2023-06-17T06:11:49.621Z,17.60
2023-06-17T06:12:46.873Z,17.74
2023-06-17T06:13:43.704Z,17.82
2023-06-17T06:14:40.533Z,17.86
2023-06-17T06:15:37.425Z,17.88
2023-06-17T06:16:34.308Z,17.80
2023-06-17T06:17:31.404Z,17.58
2023-06-17T06:18:29.443Z,17.54
2023-06-17T06:19:26.267Z,17.74
2023-06-17T06:20:23.374Z,17.67
2023-06-17T06:21:20.494Z,17.90
2023-06-17T06:22:17.329Z,18.00
2023-06-17T06:23:14.257Z,17.92
2023-06-17T06:24:11.149Z,18.06
2023-06-17T06:25:08.879Z,17.88
2023-06-17T06:26:05.763Z,17.93
2023-06-17T06:27:02.555Z,17.89
2023-06-17T06:28:02.378Z,17.77
2023-06-17T06:28:59.209Z,17.64
2023-06-17T06:29:56.072Z,18.00
2023-06-17T06:30:52.827Z,18.05
2023-06-17T06:31:49.654Z,18.15
2023-06-17T06:32:46.527Z,18.13
2023-06-17T06:33:43.442Z,18.15
2023-06-17T06:34:40.275Z,18.21
2023-06-17T06:35:37.080Z,18.04
2023-06-17T06:36:33.904Z,18.07
2023-06-17T06:37:30.920Z,17.64
2023-06-17T06:38:27.684Z,17.90
2023-06-17T06:39:24.420Z,17.96
2023-06-17T06:40:21.896Z,17.85
2023-06-17T06:41:18.973Z,18.17
2023-06-17T06:42:15.910Z,18.13
2023-06-17T06:43:12.634Z,18.06
2023-06-17T06:44:09.696Z,18.05
2023-06-17T06:45:07.010Z,17.72
2023-06-17T06:46:03.905Z,17.82
2023-06-17T06:47:01.026Z,18.04
2023-06-17T06:47:57.895Z,17.97
2023-06-17T06:48:54.814Z,18.17
2023-06-17T06:49:51.729Z,18.00
2023-06-17T06:50:48.499Z,17.98
2023-06-17T06:51:45.323Z,18.01
2023-06-17T06:52:42.211Z,18.13
2023-06-17T06:53:38.983Z,18.21
2023-06-17T06:54:35.830Z,18.15
2023-06-17T06:55:32.724Z,18.00
2023-06-17T06:56:29.685Z,17.58
2023-06-17T06:58:40.526Z,18.18
2023-06-17T06:59:37.326Z,18.32
2023-06-17T07:00:34.108Z,18.10
2023-06-17T07:01:31.633Z,17.84
2023-06-17T07:02:28.832Z,18.19
2023-06-17T07:03:25.778Z,18.27
2023-06-17T07:04:22.648Z,18.11
2023-06-17T07:05:22.351Z,18.11
2023-06-17T07:06:19.169Z,18.16
2023-06-17T07:07:15.967Z,18.37
2023-06-17T07:08:12.863Z,18.32
2023-06-17T07:09:09.707Z,18.25
2023-06-17T07:10:06.972Z,18.28
2023-06-17T07:11:03.760Z,18.30
2023-06-17T07:12:00.526Z,18.45
2023-06-17T07:12:57.334Z,18.33
2023-06-17T07:13:54.123Z,18.43
2023-06-17T07:14:51.036Z,18.44
2023-06-17T07:15:48.128Z,18.43
2023-06-17T07:16:45.799Z,18.22
2023-06-17T07:17:44.229Z,18.39
2023-06-17T07:18:41.148Z,18.55
2023-06-17T07:19:37.982Z,18.52
2023-06-17T07:20:34.844Z,18.41
2023-06-17T07:21:31.704Z,18.68
2023-06-17T07:22:28.555Z,18.17
2023-06-17T07:23:25.517Z,18.50
2023-06-17T07:24:22.330Z,18.51
2023-06-17T07:25:19.212Z,18.30
2023-06-17T07:26:16.124Z,18.58
2023-06-17T07:27:14.015Z,18.54
2023-06-17T07:28:10.893Z,18.06
2023-06-17T07:29:07.718Z,18.73
2023-06-17T07:30:05.935Z,18.71
2023-06-17T07:31:02.860Z,18.53
2023-06-17T07:31:59.749Z,18.63
2023-06-17T07:32:57.047Z,18.67
2023-06-17T07:33:59.630Z,18.53
2023-06-17T07:34:58.425Z,18.88
2023-06-17T07:35:55.425Z,18.76
2023-06-17T07:36:53.883Z,18.79
2023-06-17T07:37:54.109Z,18.84
2023-06-17T07:38:51.756Z,18.84
2023-06-17T07:39:48.686Z,19.04
2023-06-17T07:40:48.052Z,19.19
2023-06-17T07:41:44.902Z,18.92
2023-06-17T07:42:44.011Z,18.93
2023-06-17T07:43:41.016Z,19.06
2023-06-17T07:44:37.831Z,19.03
2023-06-17T07:45:34.628Z,19.10
2023-06-17T07:46:33.319Z,19.09
2023-06-17T07:47:30.239Z,19.12
2023-06-17T07:48:27.003Z,19.16
2023-06-17T07:49:23.836Z,19.18
2023-06-17T07:50:20.983Z,19.35
2023-06-17T07:51:18.036Z,19.25
2023-06-17T07:52:14.884Z,19.25
2023-06-17T07:53:11.861Z,19.01
2023-06-17T07:54:08.623Z,19.08
2023-06-17T07:55:08.519Z,19.05
2023-06-17T07:56:06.921Z,18.50
2023-06-17T07:57:04.561Z,18.90
2023-06-17T07:58:01.838Z,19.02
2023-06-17T07:58:58.683Z,19.11
2023-06-17T07:59:55.635Z,18.93
2023-06-17T08:00:52.397Z,19.15
2023-06-17T08:01:49.144Z,19.05
2023-06-17T08:02:46.297Z,18.84
2023-06-17T08:03:43.212Z,19.04
2023-06-17T08:04:40.010Z,19.03
2023-06-17T08:05:37.815Z,19.25
2023-06-17T08:06:38.729Z,19.04
2023-06-17T08:07:38.005Z,19.17
2023-06-17T08:08:37.354Z,19.20
2023-06-17T08:09:34.337Z,18.98
2023-06-17T08:10:31.530Z,19.15
2023-06-17T08:11:28.489Z,19.44
2023-06-17T08:12:25.566Z,19.15
2023-06-17T08:13:22.443Z,19.32
2023-06-17T08:14:19.268Z,19.33
2023-06-17T08:15:16.147Z,19.53
2023-06-17T08:16:13.006Z,19.32
2023-06-17T08:17:10.721Z,19.31
2023-06-17T08:18:07.625Z,19.43
2023-06-17T08:19:04.440Z,19.26
2023-06-17T08:20:01.288Z,19.38
2023-06-17T08:20:58.097Z,19.35
2023-06-17T08:21:54.884Z,19.41
2023-06-17T08:22:51.716Z,19.34
2023-06-17T08:23:51.991Z,19.41
2023-06-17T08:24:49.027Z,19.46
2023-06-17T08:25:46.987Z,19.28
2023-06-17T08:26:45.147Z,19.21
2023-06-17T08:27:45.425Z,19.13
2023-06-17T08:28:42.259Z,19.39
2023-06-17T08:29:39.030Z,19.12
2023-06-17T08:30:35.885Z,19.25
2023-06-17T08:31:32.781Z,19.03
2023-06-17T08:32:29.672Z,19.25
2023-06-17T08:33:26.473Z,19.25
2023-06-17T08:34:23.453Z,19.06
2023-06-17T08:35:20.331Z,19.12
2023-06-17T08:36:17.119Z,19.39
2023-06-17T08:37:13.959Z,19.45
2023-06-17T08:38:10.895Z,19.51
2023-06-17T08:39:09.158Z,19.46
2023-06-17T08:40:06.844Z,19.27
2023-06-17T08:41:03.631Z,19.49
2023-06-17T08:42:00.541Z,19.13
2023-06-17T08:43:05.106Z,19.16
2023-06-17T08:44:03.679Z,19.24
2023-06-17T08:45:01.638Z,19.16
2023-06-17T08:46:00.858Z,19.42
2023-06-17T08:47:01.852Z,19.30
2023-06-17T08:47:59.483Z,19.65
2023-06-17T08:48:58.755Z,19.55
2023-06-17T08:49:59.537Z,19.47
2023-06-17T08:50:56.766Z,19.64
2023-06-17T08:51:53.982Z,19.55
2023-06-17T08:52:55.097Z,19.11
2023-06-17T08:53:53.351Z,19.53
2023-06-17T08:54:50.523Z,19.45
2023-06-17T08:55:48.318Z,19.70
2023-06-17T08:56:46.245Z,19.69
2023-06-17T08:57:44.789Z,19.68
2023-06-17T08:58:43.816Z,19.79
2023-06-17T08:59:43.712Z,19.72
2023-06-17T09:00:40.539Z,19.61
2023-06-17T09:01:40.210Z,19.62
2023-06-17T09:02:38.740Z,19.67
2023-06-17T09:03:39.352Z,19.68
2023-06-17T09:04:36.611Z,19.54
2023-06-17T09:05:33.435Z,19.54
2023-06-17T09:06:31.033Z,19.69
2023-06-17T09:07:28.667Z,19.60
2023-06-17T09:08:25.974Z,19.49
2023-06-17T09:09:22.757Z,19.81
2023-06-17T09:10:21.373Z,19.69
2023-06-17T09:11:22.850Z,20.05
2023-06-17T09:12:19.704Z,19.39
2023-06-17T09:13:16.553Z,19.82
2023-06-17T09:14:13.385Z,19.88
2023-06-17T09:15:19.510Z,19.47
2023-06-17T09:16:16.404Z,19.44
2023-06-17T09:17:33.985Z,19.32
2023-06-17T09:18:34.927Z,19.37
2023-06-17T09:19:33.010Z,19.45
2023-06-17T09:20:33.838Z,19.24
2023-06-17T09:21:31.214Z,19.40
2023-06-17T09:22:28.194Z,19.51
2023-06-17T09:23:25.268Z,19.21
2023-06-17T09:24:30.750Z,18.97
2023-06-17T09:25:27.709Z,19.48
2023-06-17T09:26:31.884Z,19.41
2023-06-17T09:27:28.754Z,19.19
2023-06-17T09:28:26.160Z,19.45
2023-06-17T09:29:23.278Z,19.36
2023-06-17T09:30:24.440Z,19.32
2023-06-17T09:31:22.393Z,19.76
2023-06-17T09:32:19.162Z,19.78
2023-06-17T09:33:24.084Z,20.11
2023-06-17T09:34:22.444Z,20.15
2023-06-17T09:35:19.648Z,20.16
2023-06-17T09:36:18.903Z,19.63
2023-06-17T09:37:16.652Z,19.84
2023-06-17T09:38:17.002Z,19.62
2023-06-17T09:39:14.413Z,19.64
2023-06-17T09:40:12.865Z,19.20
2023-06-17T09:41:15.760Z,19.53
2023-06-17T09:42:13.532Z,19.76
2023-06-17T09:43:26.717Z,19.74
2023-06-17T09:44:25.141Z,20.08
2023-06-17T09:45:26.023Z,20.01
2023-06-17T09:46:36.322Z,20.16
2023-06-17T09:47:38.803Z,19.96
2023-06-17T09:48:40.013Z,20.08
2023-06-17T09:49:38.334Z,19.78
2023-06-17T09:50:40.538Z,20.12
2023-06-17T09:51:39.257Z,20.29
2023-06-17T09:52:38.457Z,20.17
2023-06-17T09:53:38.566Z,19.86
2023-06-17T09:54:55.818Z,20.19
2023-06-17T09:55:58.117Z,20.21
2023-06-17T09:56:55.921Z,20.33
2023-06-17T09:57:56.595Z,20.24
2023-06-17T09:58:57.474Z,19.86
2023-06-17T09:59:58.560Z,19.34
2023-06-17T10:00:58.223Z,19.62
2023-06-17T10:01:55.934Z,19.77
2023-06-17T10:02:54.758Z,19.52
2023-06-17T10:03:52.031Z,19.55
2023-06-17T10:04:48.868Z,19.29
2023-06-17T10:05:55.888Z,19.28
2023-06-17T10:06:54.727Z,19.68
2023-06-17T10:07:54.629Z,19.68
2023-06-17T10:08:53.755Z,19.79
2023-06-17T10:09:51.091Z,19.93
2023-06-17T10:10:50.453Z,20.13
2023-06-17T10:11:54.079Z,20.06
2023-06-17T10:12:56.042Z,20.11
2023-06-17T10:14:03.392Z,20.28
2023-06-17T10:15:04.978Z,19.67
2023-06-17T10:16:05.859Z,19.83
2023-06-17T10:17:09.066Z,19.61
2023-06-17T10:18:09.376Z,19.92
2023-06-17T10:19:10.788Z,19.91
2023-06-17T10:20:11.352Z,19.93
2023-06-17T10:21:12.740Z,20.07
2023-06-17T10:22:14.662Z,19.95
2023-06-17T10:23:12.656Z,19.63
2023-06-17T10:24:11.331Z,19.71
2023-06-17T10:25:10.906Z,19.87
2023-06-17T10:26:08.772Z,19.68
2023-06-17T10:27:07.924Z,19.63
2023-06-17T10:28:05.430Z,19.53
2023-06-17T10:29:07.907Z,19.58
2023-06-17T10:30:25.764Z,19.68
2023-06-17T10:31:29.286Z,19.68
2023-06-17T10:32:27.047Z,19.68
2023-06-17T10:33:31.518Z,20.00
2023-06-17T10:34:28.399Z,19.88
2023-06-17T10:35:37.076Z,19.79
2023-06-17T10:36:38.130Z,19.88
2023-06-17T10:37:43.722Z,19.62
2023-06-17T10:38:40.700Z,19.36
2023-06-17T10:39:37.502Z,19.45
2023-06-17T10:40:37.548Z,18.98
2023-06-17T10:41:43.590Z,19.36
2023-06-17T10:42:40.572Z,19.27
2023-06-17T10:43:38.278Z,19.45
2023-06-17T10:44:54.075Z,19.53
2023-06-17T10:45:56.716Z,19.61
2023-06-17T10:46:54.343Z,19.20
2023-06-17T10:47:51.305Z,19.14
2023-06-17T10:48:48.176Z,19.31
2023-06-17T10:49:49.129Z,19.23
2023-06-17T10:50:51.543Z,19.07
2023-06-17T10:51:57.836Z,18.56
2023-06-17T10:52:56.430Z,19.12
2023-06-17T10:53:53.253Z,19.03
2023-06-17T10:54:56.889Z,19.07
2023-06-17T10:55:54.020Z,18.90
2023-06-17T10:56:53.804Z,19.34
2023-06-17T10:57:51.547Z,19.18
2023-06-17T10:58:49.446Z,19.28
2023-06-17T10:59:46.351Z,19.49
2023-06-17T11:00:43.182Z,19.29
2023-06-17T11:01:43.137Z,19.35
2023-06-17T11:02:41.041Z,19.33
2023-06-17T11:03:38.959Z,19.19
2023-06-17T11:04:42.014Z,19.12
2023-06-17T11:05:38.951Z,19.10
2023-06-17T11:06:35.961Z,19.17
2023-06-17T11:07:34.627Z,18.99
2023-06-17T11:08:34.237Z,18.85
2023-06-17T11:09:31.514Z,19.34
2023-06-17T11:10:28.785Z,19.29
2023-06-17T11:11:25.816Z,19.34
2023-06-17T11:12:22.825Z,19.29
2023-06-17T11:13:23.270Z,19.44
2023-06-17T11:14:20.171Z,19.40
2023-06-17T11:15:17.094Z,19.38
2023-06-17T11:16:14.628Z,19.49
2023-06-17T11:17:12.220Z,19.57
2023-06-17T11:18:09.698Z,19.24
2023-06-17T11:19:07.318Z,19.59
2023-06-17T11:20:09.162Z,19.36
2023-06-17T11:21:07.692Z,19.21
2023-06-17T11:22:04.938Z,19.15
2023-06-17T11:23:04.826Z,18.92
2023-06-17T11:24:01.835Z,19.33
2023-06-17T11:24:59.200Z,19.10
2023-06-17T11:25:56.242Z,19.15
2023-06-17T11:26:53.213Z,19.03
2023-06-17T11:27:51.457Z,18.70
2023-06-17T11:28:49.460Z,19.12
2023-06-17T11:29:48.510Z,18.71
2023-06-17T11:30:45.578Z,18.62
2023-06-17T11:31:44.032Z,18.97
2023-06-17T11:32:42.950Z,19.15
2023-06-17T11:33:42.062Z,18.97
2023-06-17T11:34:42.093Z,18.90
2023-06-17T11:35:39.335Z,18.98
2023-06-17T11:36:39.480Z,19.01
2023-06-17T11:37:36.610Z,19.12
2023-06-17T11:38:33.703Z,19.16
2023-06-17T11:39:32.040Z,18.90
2023-06-17T11:40:29.011Z,18.97
2023-06-17T11:41:26.583Z,19.05
2023-06-17T11:42:23.913Z,19.21
2023-06-17T11:43:25.783Z,19.31
2023-06-17T11:44:23.139Z,19.25
2023-06-17T11:45:21.519Z,19.21
2023-06-17T11:46:25.896Z,19.26
2023-06-17T11:47:36.208Z,19.52
2023-06-17T11:48:36.582Z,19.21
2023-06-17T11:49:33.813Z,19.16
2023-06-17T11:50:33.639Z,19.25
2023-06-17T11:51:31.675Z,19.10
2023-06-17T11:52:29.358Z,19.37
2023-06-17T11:53:39.775Z,19.76
2023-06-17T11:54:57.306Z,19.61
2023-06-17T11:55:54.230Z,19.57
2023-06-17T11:56:51.140Z,19.35
2023-06-17T11:57:49.717Z,19.31
2023-06-17T11:58:47.068Z,19.02
2023-06-17T11:59:44.991Z,19.26
2023-06-17T12:00:41.812Z,19.59
2023-06-17T12:01:38.682Z,19.70
2023-06-17T12:02:36.281Z,19.69
2023-06-17T12:03:33.820Z,19.44
2023-06-17T12:04:31.922Z,19.66
2023-06-17T12:05:29.980Z,19.65
2023-06-17T12:06:29.112Z,19.69
2023-06-17T12:07:26.098Z,19.60
2023-06-17T12:08:23.292Z,19.36
2023-06-17T12:09:20.926Z,19.54
2023-06-17T12:10:18.525Z,19.86
2023-06-17T12:11:26.855Z,19.62
2023-06-17T12:12:29.746Z,19.65
2023-06-17T12:13:37.068Z,19.36
2023-06-17T12:14:38.493Z,19.46
2023-06-17T12:15:37.246Z,19.47
2023-06-17T12:16:37.056Z,19.41
2023-06-17T12:17:45.188Z,19.52
2023-06-17T12:18:49.879Z,19.08
2023-06-17T12:19:49.154Z,19.56
2023-06-17T12:20:50.213Z,19.30
2023-06-17T12:21:47.062Z,19.30
2023-06-17T12:22:45.069Z,19.10
2023-06-17T12:23:41.876Z,19.58
2023-06-17T12:24:38.774Z,19.59
2023-06-17T12:25:35.714Z,19.32
2023-06-17T12:26:32.938Z,19.37
2023-06-17T12:27:30.640Z,19.75
2023-06-17T12:28:27.855Z,19.73
2023-06-17T12:29:26.533Z,19.59
2023-06-17T12:30:23.730Z,19.66
2023-06-17T12:31:21.308Z,19.29
2023-06-17T12:32:18.218Z,19.51
2023-06-17T12:33:15.167Z,19.65